Cowen, West Virginia
Current Conditions -  °F | °C
As of 9:35 PM on Saturday 22 Nov 2014 (Local Time) from KLWB Reporting Station
Clear Clear  
Wind Chill: 32°   Ceiling: Unl
Heat Index: 32°   Visibility: 10mi
Dew Point: 22°   Wind: 3mph
Humidity: 67%   Direction: 30°NNE
Pressure: 30.23"   Gusts: NA
Location:  38.41°N, 80.56°W
Report Text: KLWB 230235Z AUTO 03003KT 10SM CLR 00/M06 A3023 RMK AO2 T10021056
Loading
Personal Weather Stations






























Interactive Weather Map New forecast layout! Learn more

10-Day Weather Forecast

Advertisements
Track Severe Weather on mobile